createdAt,value
2023-02-23T00:00:51.057Z,7.19
2023-02-23T00:03:17.456Z,7.18
2023-02-23T00:05:43.798Z,7.19
2023-02-23T00:08:10.143Z,7.11
2023-02-23T00:10:36.467Z,7.11
2023-02-23T00:13:02.807Z,7.12
2023-02-23T00:15:29.146Z,7.13
2023-02-23T00:17:55.533Z,7.11
2023-02-23T00:20:21.856Z,7.10
2023-02-23T00:22:48.585Z,7.07
2023-02-23T00:25:14.933Z,6.98
2023-02-23T00:27:41.317Z,6.88
2023-02-23T00:30:07.642Z,6.82
2023-02-23T00:32:34.194Z,6.76
2023-02-23T00:35:00.397Z,6.74
2023-02-23T00:37:26.733Z,6.79
2023-02-23T00:39:53.146Z,6.84
2023-02-23T00:42:19.507Z,6.78
2023-02-23T00:44:45.851Z,6.73
2023-02-23T00:47:12.267Z,6.71
2023-02-23T00:49:38.621Z,6.63
2023-02-23T00:52:04.993Z,6.59
2023-02-23T00:54:31.381Z,6.55
2023-02-23T00:56:57.769Z,6.70
2023-02-23T00:59:24.109Z,6.76
2023-02-23T01:01:50.495Z,6.69
2023-02-23T01:04:16.865Z,6.81
2023-02-23T01:06:43.314Z,6.75
2023-02-23T01:09:09.644Z,6.60
2023-02-23T01:11:35.968Z,6.52
2023-02-23T01:14:02.377Z,6.46
2023-02-23T01:16:28.759Z,6.44
2023-02-23T01:18:55.072Z,6.37
2023-02-23T01:21:21.470Z,6.34
2023-02-23T01:23:47.815Z,6.20
2023-02-23T01:26:14.235Z,6.11
2023-02-23T01:28:40.598Z,6.08
2023-02-23T01:31:07.042Z,6.17
2023-02-23T01:33:33.351Z,6.09
2023-02-23T01:35:59.695Z,5.96
2023-02-23T01:38:26.024Z,6.00
2023-02-23T01:40:52.402Z,6.01
2023-02-23T01:43:18.717Z,6.06
2023-02-23T01:45:45.103Z,6.08
2023-02-23T01:48:11.469Z,6.06
2023-02-23T01:50:37.800Z,6.08
2023-02-23T01:53:04.180Z,6.02
2023-02-23T01:55:30.556Z,5.95
2023-02-23T01:57:56.906Z,5.93
2023-02-23T02:00:23.240Z,5.92
2023-02-23T02:02:49.606Z,5.98
2023-02-23T02:05:15.967Z,5.92
2023-02-23T02:07:42.288Z,5.86
2023-02-23T02:10:08.667Z,5.83
2023-02-23T02:12:35.073Z,5.77
2023-02-23T02:15:01.455Z,5.74
2023-02-23T02:17:27.778Z,5.73
2023-02-23T02:19:54.138Z,5.66
2023-02-23T02:22:20.462Z,5.69
2023-02-23T02:24:46.917Z,5.72
2023-02-23T02:27:13.221Z,5.77
2023-02-23T02:29:39.548Z,5.68
2023-02-23T02:32:06.045Z,5.60
2023-02-23T02:34:32.299Z,5.62
2023-02-23T02:36:58.631Z,5.69
2023-02-23T02:39:24.969Z,5.65
2023-02-23T02:41:51.330Z,5.61
2023-02-23T02:44:17.713Z,5.52
2023-02-23T02:46:44.035Z,5.51
2023-02-23T02:49:10.442Z,5.45
2023-02-23T02:51:36.801Z,5.44
2023-02-23T02:54:03.193Z,5.50
2023-02-23T02:56:29.546Z,5.46
2023-02-23T02:58:55.883Z,5.23
2023-02-23T03:01:22.236Z,5.07
2023-02-23T03:03:48.618Z,5.13
2023-02-23T03:06:14.951Z,5.08
2023-02-23T03:08:41.331Z,5.01
2023-02-23T03:11:07.676Z,4.92
2023-02-23T03:13:34.115Z,4.92
2023-02-23T03:16:00.485Z,4.92
2023-02-23T03:18:26.901Z,4.84
2023-02-23T03:20:53.266Z,4.79
2023-02-23T03:23:19.641Z,4.86
2023-02-23T03:25:46.012Z,4.93
2023-02-23T03:28:12.407Z,4.89
2023-02-23T03:30:38.756Z,4.78
2023-02-23T03:33:05.072Z,4.69
2023-02-23T03:35:31.449Z,4.60
2023-02-23T03:37:57.828Z,4.48
2023-02-23T03:40:24.201Z,4.40
2023-02-23T03:42:50.589Z,4.37
2023-02-23T03:45:16.892Z,4.43
2023-02-23T03:47:43.309Z,4.45
2023-02-23T03:50:09.666Z,4.45
2023-02-23T03:52:36.006Z,4.48
2023-02-23T03:55:02.380Z,4.54
2023-02-23T03:57:28.764Z,4.50
2023-02-23T03:59:55.072Z,4.55
2023-02-23T04:02:21.423Z,4.71
2023-02-23T04:04:47.744Z,4.81
2023-02-23T04:07:14.128Z,4.73
2023-02-23T04:09:40.478Z,4.73
2023-02-23T04:12:06.865Z,4.60
2023-02-23T04:14:33.240Z,4.60
2023-02-23T04:16:59.582Z,4.76
2023-02-23T04:19:25.947Z,4.87
2023-02-23T04:21:52.338Z,4.82
2023-02-23T04:24:18.662Z,4.74
2023-02-23T04:26:45.049Z,4.64
2023-02-23T04:29:11.417Z,4.60
2023-02-23T04:31:37.814Z,4.61
2023-02-23T04:34:04.081Z,4.60
2023-02-23T04:36:30.457Z,4.57
2023-02-23T04:38:56.801Z,4.48
2023-02-23T04:41:23.159Z,4.50
2023-02-23T04:43:49.522Z,4.64
2023-02-23T04:46:15.925Z,4.76
2023-02-23T04:48:42.215Z,4.74
2023-02-23T04:51:08.628Z,4.87
2023-02-23T04:53:34.926Z,4.91
2023-02-23T04:56:01.320Z,4.80
2023-02-23T04:58:27.634Z,4.65
2023-02-23T05:00:54.020Z,4.53
2023-02-23T05:03:20.344Z,4.54
2023-02-23T05:05:46.801Z,4.48
2023-02-23T05:08:13.201Z,4.46
2023-02-23T05:10:40.422Z,4.52
2023-02-23T05:13:05.897Z,4.47
2023-02-23T05:15:32.327Z,4.36
2023-02-23T05:17:58.637Z,4.43
2023-02-23T05:20:25.007Z,4.34
2023-02-23T05:22:51.644Z,4.32
2023-02-23T05:25:17.983Z,4.41
2023-02-23T05:27:44.311Z,4.44
2023-02-23T05:30:11.225Z,4.44
2023-02-23T05:32:37.601Z,4.51
2023-02-23T05:35:03.869Z,4.58
2023-02-23T05:37:30.250Z,4.60
2023-02-23T05:39:56.647Z,4.61
2023-02-23T05:42:23.011Z,4.69
2023-02-23T05:44:49.362Z,4.67
2023-02-23T05:47:15.854Z,4.65
2023-02-23T05:49:42.223Z,4.76
2023-02-23T05:52:08.636Z,5.00
2023-02-23T05:54:34.983Z,5.22
2023-02-23T05:57:01.907Z,5.52
2023-02-23T05:59:27.707Z,5.80
2023-02-23T06:01:54.067Z,6.07
2023-02-23T06:04:20.461Z,6.25
2023-02-23T06:06:46.824Z,6.45
2023-02-23T06:09:13.200Z,6.79
2023-02-23T06:11:39.774Z,7.15
2023-02-23T06:14:06.163Z,7.48
2023-02-23T06:16:32.598Z,7.60
2023-02-23T06:18:58.924Z,7.73
2023-02-23T06:21:25.256Z,7.79
2023-02-23T06:23:51.638Z,7.63
2023-02-23T06:26:18.249Z,7.84
2023-02-23T06:28:44.556Z,8.03
2023-02-23T06:31:11.385Z,8.22
2023-02-23T06:33:37.632Z,8.44
2023-02-23T06:36:04.040Z,8.58
2023-02-23T06:38:30.324Z,8.77
2023-02-23T06:40:56.985Z,8.93
2023-02-23T06:43:23.561Z,8.84
2023-02-23T06:45:49.715Z,8.86
2023-02-23T06:48:16.111Z,8.95
2023-02-23T06:50:42.497Z,9.03
2023-02-23T06:53:08.828Z,9.20
2023-02-23T06:55:35.179Z,9.19
2023-02-23T06:58:01.505Z,9.05
2023-02-23T07:00:27.899Z,8.95
2023-02-23T07:02:54.253Z,9.01
2023-02-23T07:05:20.643Z,9.15
2023-02-23T07:07:47.132Z,9.11
2023-02-23T07:10:13.514Z,9.75
2023-02-23T07:12:39.836Z,9.67
2023-02-23T07:15:06.305Z,9.56
2023-02-23T07:17:32.678Z,9.66
2023-02-23T07:19:59.066Z,9.57
2023-02-23T07:22:25.427Z,10.17
2023-02-23T07:24:51.949Z,10.53
2023-02-23T07:27:18.326Z,10.64
2023-02-23T07:29:44.649Z,10.92
2023-02-23T07:32:12.280Z,10.81
2023-02-23T07:34:38.473Z,10.66
2023-02-23T07:37:04.861Z,10.34
2023-02-23T07:39:31.334Z,10.30
2023-02-23T07:41:57.646Z,10.30
2023-02-23T07:44:24.063Z,10.19
2023-02-23T07:46:50.783Z,10.76
2023-02-23T07:49:17.124Z,11.47
2023-02-23T07:51:43.468Z,12.08
2023-02-23T07:54:09.958Z,12.10
2023-02-23T07:56:36.274Z,12.11
2023-02-23T07:59:02.638Z,12.09
2023-02-23T08:01:29.072Z,12.76
2023-02-23T08:03:55.421Z,13.46
2023-02-23T08:06:21.734Z,13.38
2023-02-23T08:08:48.145Z,13.36
2023-02-23T08:11:14.506Z,13.77
2023-02-23T08:13:40.863Z,13.86
2023-02-23T08:16:07.245Z,14.06
2023-02-23T08:18:33.676Z,13.88
2023-02-23T08:20:59.980Z,13.93
2023-02-23T08:23:26.329Z,13.79
2023-02-23T08:25:52.657Z,13.65
2023-02-23T08:28:19.042Z,14.11
2023-02-23T08:30:45.515Z,14.43
2023-02-23T08:33:11.802Z,14.65
2023-02-23T08:35:38.140Z,14.91
2023-02-23T08:38:04.549Z,14.75
2023-02-23T08:40:30.928Z,15.26
2023-02-23T08:42:57.306Z,15.71
2023-02-23T08:45:23.658Z,15.93
2023-02-23T08:47:50.086Z,15.86
2023-02-23T08:50:16.391Z,16.19
2023-02-23T08:52:42.744Z,16.35
2023-02-23T08:55:09.134Z,16.07
2023-02-23T08:57:35.495Z,15.79
2023-02-23T09:00:01.858Z,15.71
2023-02-23T09:02:28.230Z,16.37
2023-02-23T09:04:54.584Z,17.06
2023-02-23T09:07:21.220Z,17.19
2023-02-23T09:09:47.548Z,17.18
2023-02-23T09:12:13.973Z,17.40
2023-02-23T09:14:40.465Z,17.34
2023-02-23T09:17:06.867Z,17.82
2023-02-23T09:19:33.211Z,18.07
2023-02-23T09:21:59.617Z,17.58
2023-02-23T09:24:27.022Z,17.84
2023-02-23T09:26:53.368Z,17.81
2023-02-23T09:29:19.746Z,18.45
2023-02-23T09:31:46.166Z,18.80
2023-02-23T09:34:12.456Z,18.60
2023-02-23T09:36:38.846Z,18.90
2023-02-23T09:39:05.244Z,19.01
2023-02-23T09:41:31.625Z,19.32
2023-02-23T09:43:58.077Z,19.05
2023-02-23T09:46:24.501Z,19.04
2023-02-23T09:48:50.800Z,19.14
2023-02-23T09:51:17.668Z,19.39
2023-02-23T09:53:43.919Z,19.48
2023-02-23T09:56:09.943Z,19.72
2023-02-23T09:58:36.267Z,19.89
2023-02-23T10:01:02.659Z,20.21
2023-02-23T10:03:29.068Z,20.67
2023-02-23T10:05:55.428Z,20.44
2023-02-23T10:08:22.048Z,20.29
2023-02-23T10:10:48.446Z,20.15
2023-02-23T10:13:14.816Z,20.14
2023-02-23T10:15:41.233Z,19.93
2023-02-23T10:18:07.478Z,20.05
2023-02-23T10:20:33.901Z,19.39
2023-02-23T10:23:00.234Z,19.49
2023-02-23T10:25:26.635Z,19.38
2023-02-23T10:27:52.951Z,19.74
2023-02-23T10:30:19.321Z,20.28
2023-02-23T10:32:45.722Z,20.46
2023-02-23T10:35:12.087Z,20.48
2023-02-23T10:37:38.442Z,19.84
2023-02-23T10:40:04.901Z,20.02
2023-02-23T10:42:31.248Z,19.96
2023-02-23T10:44:57.611Z,20.03
2023-02-23T10:47:24.306Z,20.30
2023-02-23T10:49:50.593Z,19.45
2023-02-23T10:52:16.920Z,19.35
2023-02-23T10:54:43.281Z,19.89
2023-02-23T10:57:09.663Z,20.64
2023-02-23T10:59:36.146Z,21.12
2023-02-23T11:02:03.050Z,21.02
2023-02-23T11:04:29.336Z,21.25
2023-02-23T11:06:55.612Z,21.50
2023-02-23T11:09:24.862Z,21.57
2023-02-23T11:11:48.380Z,21.42
2023-02-23T11:14:14.725Z,21.80
2023-02-23T11:16:41.153Z,22.12
2023-02-23T11:19:07.457Z,21.76
2023-02-23T11:21:34.245Z,21.37
2023-02-23T11:24:00.575Z,21.13
2023-02-23T11:26:26.950Z,21.08
2023-02-23T11:28:53.309Z,21.13
2023-02-23T11:31:19.997Z,21.78
2023-02-23T11:33:45.995Z,21.60
2023-02-23T11:36:12.434Z,21.59
2023-02-23T11:38:38.819Z,21.19
2023-02-23T11:41:05.149Z,20.94
2023-02-23T11:43:31.520Z,20.49
2023-02-23T11:45:57.889Z,20.40
2023-02-23T11:48:24.315Z,20.54
2023-02-23T11:50:50.643Z,20.98
2023-02-23T11:53:17.051Z,21.09
2023-02-23T11:55:43.454Z,21.31
2023-02-23T11:58:09.886Z,21.24
2023-02-23T12:00:36.198Z,21.38
2023-02-23T12:03:02.639Z,21.71
2023-02-23T12:05:28.937Z,21.03
2023-02-23T12:07:55.293Z,20.91
2023-02-23T12:10:21.761Z,20.86
2023-02-23T12:12:48.111Z,21.12
2023-02-23T12:15:14.437Z,20.96
2023-02-23T12:17:40.836Z,20.52
2023-02-23T12:20:07.166Z,20.51
2023-02-23T12:22:33.551Z,21.24
2023-02-23T12:24:59.878Z,21.20
2023-02-23T12:27:26.289Z,20.78
2023-02-23T12:29:52.622Z,20.33
2023-02-23T12:32:19.334Z,19.84
2023-02-23T12:34:45.546Z,19.66
2023-02-23T12:37:11.901Z,19.30
2023-02-23T12:39:38.314Z,19.40
2023-02-23T12:42:04.672Z,19.29
2023-02-23T12:44:31.085Z,19.53
2023-02-23T12:46:57.543Z,19.46
2023-02-23T12:49:23.857Z,19.34
2023-02-23T12:51:50.250Z,19.56
2023-02-23T12:54:16.709Z,19.74
2023-02-23T12:56:43.162Z,19.79
2023-02-23T12:59:09.517Z,19.67
2023-02-23T13:01:35.958Z,19.81
2023-02-23T13:04:02.271Z,19.85
2023-02-23T13:06:28.655Z,19.74
2023-02-23T13:08:55.020Z,19.54
2023-02-23T13:11:21.556Z,19.42
2023-02-23T13:13:47.852Z,19.47
2023-02-23T13:16:14.511Z,19.57
2023-02-23T13:18:40.869Z,19.37
2023-02-23T13:21:07.255Z,19.36
2023-02-23T13:23:33.688Z,19.34
2023-02-23T13:26:00.086Z,19.26
2023-02-23T13:28:26.386Z,19.23
2023-02-23T13:30:52.825Z,19.30
2023-02-23T13:33:19.065Z,19.48
2023-02-23T13:35:45.506Z,19.36
2023-02-23T13:38:11.827Z,19.13
2023-02-23T13:40:38.246Z,18.88
2023-02-23T13:43:04.587Z,18.88
2023-02-23T13:45:30.949Z,18.83
2023-02-23T13:47:57.432Z,18.68
2023-02-23T13:50:23.821Z,18.63
2023-02-23T13:52:50.250Z,18.57
2023-02-23T13:55:16.610Z,18.48
2023-02-23T13:57:42.939Z,18.39
2023-02-23T14:00:09.421Z,18.27
2023-02-23T14:02:35.830Z,18.31
2023-02-23T14:05:02.093Z,18.30
2023-02-23T14:07:28.412Z,18.44
2023-02-23T14:09:55.092Z,18.49
2023-02-23T14:12:21.428Z,18.31
2023-02-23T14:14:47.772Z,18.17
2023-02-23T14:17:14.164Z,18.07
2023-02-23T14:19:40.630Z,17.78
2023-02-23T14:22:07.044Z,17.60
2023-02-23T14:24:33.447Z,17.52
2023-02-23T14:26:59.851Z,17.55
2023-02-23T14:29:26.229Z,17.41
2023-02-23T14:31:52.742Z,17.31
2023-02-23T14:34:18.917Z,17.07
2023-02-23T14:36:45.316Z,16.93
2023-02-23T14:39:11.745Z,16.82
2023-02-23T14:41:38.167Z,16.75
2023-02-23T14:44:04.607Z,16.67
2023-02-23T14:46:31.052Z,16.57
2023-02-23T14:48:57.370Z,16.45
2023-02-23T14:51:23.726Z,16.26
2023-02-23T14:53:50.167Z,16.05
2023-02-23T14:56:16.571Z,15.90
2023-02-23T14:58:43.297Z,15.78
2023-02-23T15:01:09.640Z,15.66
2023-02-23T15:03:35.971Z,15.47
2023-02-23T15:06:02.422Z,15.37
2023-02-23T15:08:28.735Z,15.26
2023-02-23T15:10:55.131Z,15.07
2023-02-23T15:13:21.524Z,15.01
2023-02-23T15:15:47.841Z,14.93
2023-02-23T15:18:14.244Z,14.84
2023-02-23T15:20:40.607Z,14.64
2023-02-23T15:23:07.030Z,14.49
2023-02-23T15:25:33.357Z,14.35
2023-02-23T15:27:59.727Z,14.25
2023-02-23T15:30:26.029Z,14.17
2023-02-23T15:32:52.578Z,14.08
2023-02-23T15:35:18.783Z,14.00
2023-02-23T15:37:45.146Z,13.90
2023-02-23T15:40:12.006Z,13.81
2023-02-23T15:42:38.393Z,13.75
2023-02-23T15:45:04.719Z,13.63
2023-02-23T15:47:31.064Z,13.59
2023-02-23T15:49:57.512Z,13.48
2023-02-23T15:52:23.887Z,13.42
2023-02-23T15:54:50.404Z,13.36
2023-02-23T15:57:16.838Z,13.28
2023-02-23T15:59:43.155Z,13.22
2023-02-23T16:02:09.541Z,13.16
2023-02-23T16:04:38.361Z,13.09
2023-02-23T16:07:04.871Z,12.98
2023-02-23T16:09:33.585Z,12.95
2023-02-23T16:11:59.912Z,12.91
2023-02-23T16:14:26.235Z,12.88
2023-02-23T16:17:04.918Z,12.80
2023-02-23T16:19:18.987Z,12.72
2023-02-23T16:21:45.409Z,12.66
2023-02-23T16:24:11.846Z,12.58
2023-02-23T16:26:38.182Z,12.51
2023-02-23T16:29:04.585Z,12.46
2023-02-23T16:31:30.998Z,12.40
2023-02-23T16:33:57.328Z,12.33
2023-02-23T16:36:23.960Z,12.26
2023-02-23T16:38:50.844Z,12.17
2023-02-23T16:41:17.464Z,12.18
2023-02-23T16:43:45.134Z,12.12
2023-02-23T16:46:11.487Z,12.04
2023-02-23T16:48:37.909Z,12.03
2023-02-23T16:51:04.255Z,11.96
2023-02-23T16:53:30.613Z,11.93
2023-02-23T16:55:56.930Z,11.87
2023-02-23T16:58:23.388Z,11.81
2023-02-23T17:00:49.698Z,11.78
2023-02-23T17:03:16.097Z,11.76
2023-02-23T17:05:42.838Z,11.67
2023-02-23T17:08:09.170Z,11.62
2023-02-23T17:10:35.596Z,11.57
2023-02-23T17:13:01.945Z,11.51
2023-02-23T17:15:28.433Z,11.48
2023-02-23T17:17:54.790Z,11.38
2023-02-23T17:20:21.176Z,11.31
2023-02-23T17:22:47.586Z,11.27
2023-02-23T17:25:14.028Z,11.22
2023-02-23T17:27:40.421Z,11.19
2023-02-23T17:30:06.752Z,11.14
2023-02-23T17:32:33.299Z,11.06
2023-02-23T17:34:59.627Z,10.98
2023-02-23T17:37:26.007Z,10.94
2023-02-23T17:39:52.390Z,10.89
2023-02-23T17:42:18.792Z,10.83
2023-02-23T17:44:45.151Z,10.75
2023-02-23T17:47:11.551Z,10.67
2023-02-23T17:49:37.919Z,10.62
2023-02-23T17:52:04.298Z,10.57
2023-02-23T17:54:30.897Z,10.50
2023-02-23T17:56:57.273Z,10.45
2023-02-23T17:59:23.636Z,10.43
2023-02-23T18:01:50.326Z,10.40
2023-02-23T18:04:16.599Z,10.36
2023-02-23T18:06:42.946Z,10.32
2023-02-23T18:09:09.375Z,10.27
2023-02-23T18:11:35.687Z,10.19
2023-02-23T18:14:02.021Z,10.13
2023-02-23T18:16:28.640Z,10.08
2023-02-23T18:18:54.898Z,9.97
2023-02-23T18:21:21.350Z,9.93
2023-02-23T18:23:48.017Z,9.87
2023-02-23T18:26:14.448Z,9.80
2023-02-23T18:28:40.845Z,9.83
2023-02-23T18:31:08.430Z,9.78
2023-02-23T18:33:34.764Z,9.71
2023-02-23T18:36:01.124Z,9.68
2023-02-23T18:38:27.786Z,9.65
2023-02-23T18:40:54.170Z,9.63
2023-02-23T18:43:20.530Z,9.58
2023-02-23T18:45:46.921Z,9.53
2023-02-23T18:48:15.458Z,9.51
2023-02-23T18:50:41.835Z,9.52
2023-02-23T18:53:08.181Z,9.51
2023-02-23T18:55:34.569Z,9.48
2023-02-23T18:58:00.924Z,9.42
2023-02-23T19:00:27.488Z,9.38
2023-02-23T19:02:53.716Z,9.33
2023-02-23T19:05:22.046Z,9.23
2023-02-23T19:07:46.521Z,9.22
2023-02-23T19:10:12.896Z,9.20
2023-02-23T19:12:39.332Z,9.16
2023-02-23T19:15:05.926Z,9.12
2023-02-23T19:17:32.295Z,9.18
2023-02-23T19:19:58.673Z,9.17
2023-02-23T19:22:25.002Z,9.08
2023-02-23T19:24:51.353Z,9.06
2023-02-23T19:27:17.758Z,9.03
2023-02-23T19:29:44.109Z,8.94
2023-02-23T19:32:10.617Z,8.96
2023-02-23T19:34:37.055Z,8.91
2023-02-23T19:37:03.489Z,8.89
2023-02-23T19:39:29.845Z,8.88
2023-02-23T19:41:56.253Z,8.83
2023-02-23T19:44:22.595Z,8.82
2023-02-23T19:46:49.155Z,8.81
2023-02-23T19:49:15.520Z,8.72
2023-02-23T19:51:42.373Z,8.71
2023-02-23T19:54:08.999Z,8.69
2023-02-23T19:56:35.350Z,8.73
2023-02-23T19:59:01.688Z,8.70
2023-02-23T20:01:28.846Z,8.70
2023-02-23T20:03:55.247Z,8.66
2023-02-23T20:06:21.868Z,8.62
2023-02-23T20:08:48.263Z,8.61
2023-02-23T20:11:14.713Z,8.59
2023-02-23T20:13:41.160Z,8.54
2023-02-23T20:16:07.648Z,8.56
2023-02-23T20:18:34.086Z,8.55
2023-02-23T20:21:00.452Z,8.56
2023-02-23T20:23:27.163Z,8.55
2023-02-23T20:25:53.468Z,8.55
2023-02-23T20:28:19.898Z,8.55
2023-02-23T20:30:46.325Z,8.59
2023-02-23T20:33:12.655Z,8.59
2023-02-23T20:35:39.089Z,8.55
2023-02-23T20:38:05.436Z,8.55
2023-02-23T20:40:31.796Z,8.55
2023-02-23T20:42:58.256Z,8.56
2023-02-23T20:45:24.901Z,8.52
2023-02-23T20:47:51.260Z,8.51
2023-02-23T20:50:17.622Z,8.49
2023-02-23T20:52:43.969Z,8.46
2023-02-23T20:55:10.333Z,8.47
2023-02-23T20:57:36.730Z,8.46
2023-02-23T21:00:03.053Z,8.43
2023-02-23T21:02:29.506Z,8.40
2023-02-23T21:04:55.852Z,8.33
2023-02-23T21:07:22.197Z,8.39
2023-02-23T21:09:48.608Z,8.41
2023-02-23T21:12:15.090Z,8.36
2023-02-23T21:14:41.506Z,8.36
2023-02-23T21:17:08.163Z,8.34
2023-02-23T21:19:34.474Z,8.37
2023-02-23T21:22:00.821Z,8.33
2023-02-23T21:30:27.944Z,8.29
2023-02-23T21:32:54.353Z,8.34
2023-02-23T21:35:20.661Z,8.37
2023-02-23T21:37:47.032Z,8.39
2023-02-23T21:40:13.417Z,8.37
2023-02-23T21:42:39.763Z,8.37
2023-02-23T21:45:06.111Z,8.32
2023-02-23T21:47:32.433Z,8.33
2023-02-23T21:49:58.812Z,8.29
2023-02-23T21:52:25.162Z,8.24
2023-02-23T21:54:51.522Z,8.29
2023-02-23T21:57:17.880Z,8.30
2023-02-23T21:59:44.266Z,8.28
2023-02-23T22:02:10.623Z,8.33
2023-02-23T22:04:37.269Z,8.30
2023-02-23T22:07:03.357Z,8.28
2023-02-23T22:09:29.755Z,8.28
2023-02-23T22:11:56.175Z,8.27
2023-02-23T22:14:22.517Z,8.26
2023-02-23T22:16:48.830Z,8.29
2023-02-23T22:19:15.310Z,8.30
2023-02-23T22:21:41.605Z,8.30
2023-02-23T22:24:07.988Z,8.32
2023-02-23T22:26:34.308Z,8.30
2023-02-23T22:29:00.657Z,8.29
2023-02-23T22:31:27.122Z,8.23
2023-02-23T22:33:53.468Z,8.23
2023-02-23T22:36:19.804Z,8.23
2023-02-23T22:38:46.181Z,8.24
2023-02-23T22:41:12.564Z,8.26
2023-02-23T22:43:38.957Z,8.22
2023-02-23T22:46:05.303Z,8.23
2023-02-23T22:48:32.011Z,8.24
2023-02-23T22:50:58.374Z,8.24
2023-02-23T22:53:24.708Z,8.18
2023-02-23T22:55:51.065Z,8.22
2023-02-23T22:58:17.464Z,8.20
2023-02-23T23:00:43.775Z,8.17
2023-02-23T23:03:10.358Z,8.16
2023-02-23T23:05:36.644Z,8.17
2023-02-23T23:08:03.031Z,8.17
2023-02-23T23:10:29.347Z,8.16
2023-02-23T23:12:55.693Z,8.16
2023-02-23T23:15:23.540Z,8.14
2023-02-23T23:17:48.663Z,8.13
2023-02-23T23:20:14.733Z,8.11
2023-02-23T23:22:41.085Z,8.12
2023-02-23T23:25:07.439Z,8.10
2023-02-23T23:27:33.815Z,8.16
2023-02-23T23:30:00.174Z,8.12
2023-02-23T23:32:26.662Z,8.16
2023-02-23T23:34:52.905Z,8.13
2023-02-23T23:37:19.271Z,8.10
2023-02-23T23:39:45.649Z,8.08
2023-02-23T23:42:12.030Z,8.08
2023-02-23T23:44:38.326Z,8.00
2023-02-23T23:47:04.668Z,7.94
2023-02-23T23:49:31.034Z,7.92
2023-02-23T23:51:57.385Z,7.96
2023-02-23T23:54:23.748Z,7.94
2023-02-23T23:56:50.088Z,7.91
2023-02-23T23:59:16.481Z,7.91
